createdAt,value
2022-12-03T00:01:30.997Z,26.70
2022-12-03T00:03:59.714Z,30.70
2022-12-03T00:06:33.033Z,23.60
2022-12-03T00:09:04.358Z,27.20
2022-12-03T00:11:33.318Z,25.90
2022-12-03T00:14:02.144Z,25.90
2022-12-03T00:16:31.037Z,24.40
2022-12-03T00:18:59.628Z,24.20
2022-12-03T00:21:28.264Z,22.80
2022-12-03T00:23:57.086Z,21.50
2022-12-03T00:26:25.522Z,24.40
2022-12-03T00:28:55.245Z,19.10
2022-12-03T00:31:25.120Z,21.50
2022-12-03T00:33:53.667Z,22.00
2022-12-03T00:36:22.245Z,20.50
2022-12-03T00:38:51.042Z,23.40
2022-12-03T00:41:19.550Z,22.40
2022-12-03T00:43:48.071Z,20.10
2022-12-03T00:46:21.064Z,21.90
2022-12-03T00:48:50.322Z,18.50
2022-12-03T00:51:19.076Z,26.30
2022-12-03T00:53:48.445Z,19.90
2022-12-03T00:56:17.030Z,21.00
2022-12-03T00:58:45.821Z,19.40
2022-12-03T01:01:14.524Z,23.70
2022-12-03T01:03:43.495Z,19.90
2022-12-03T01:06:12.180Z,20.50
2022-12-03T01:08:40.969Z,21.30
2022-12-03T01:11:29.540Z,17.50
2022-12-03T01:13:58.725Z,21.20
2022-12-03T01:16:27.464Z,22.30
2022-12-03T01:18:56.292Z,22.00
2022-12-03T01:21:24.829Z,17.50
2022-12-03T01:23:53.393Z,19.90
2022-12-03T01:26:22.077Z,22.10
2022-12-03T01:28:50.610Z,24.20
2022-12-03T01:31:38.822Z,20.10
2022-12-03T01:34:07.556Z,18.40
2022-12-03T01:36:36.144Z,20.50
2022-12-03T01:39:05.642Z,17.00
2022-12-03T01:41:36.200Z,21.10
2022-12-03T01:44:15.946Z,16.90
2022-12-03T01:49:27.688Z,18.60
2022-12-03T01:51:57.848Z,18.10
2022-12-03T01:54:35.097Z,17.80
2022-12-03T01:57:04.158Z,19.40
2022-12-03T01:59:39.052Z,17.30
2022-12-03T02:02:30.775Z,16.20
2022-12-03T02:05:01.278Z,18.60
2022-12-03T02:07:34.380Z,16.60
2022-12-03T02:10:04.622Z,16.30
2022-12-03T02:12:49.046Z,16.60
2022-12-03T02:15:17.968Z,17.30
2022-12-03T02:17:46.715Z,13.80
2022-12-03T02:20:16.484Z,13.80
2022-12-03T02:23:00.015Z,16.70
2022-12-03T02:25:33.091Z,16.40
2022-12-03T02:28:03.719Z,19.40
2022-12-03T02:30:32.831Z,17.10
2022-12-03T02:33:01.581Z,16.60
2022-12-03T02:35:36.737Z,16.00
2022-12-03T02:38:25.322Z,16.20
2022-12-03T02:41:00.630Z,18.50
2022-12-03T02:43:29.444Z,18.20
2022-12-03T02:46:01.492Z,19.80
2022-12-03T02:48:37.287Z,14.50
2022-12-03T02:51:09.811Z,18.00
2022-12-03T02:53:44.695Z,17.40
2022-12-03T02:56:19.181Z,16.10
2022-12-03T02:58:51.840Z,16.00
2022-12-03T03:01:20.541Z,17.40
2022-12-03T03:03:52.320Z,14.90
2022-12-03T03:06:21.789Z,18.00
2022-12-03T03:08:51.257Z,20.10
2022-12-03T03:11:19.982Z,17.00
2022-12-03T03:13:48.670Z,23.10
2022-12-03T03:16:17.450Z,16.50
2022-12-03T03:18:45.953Z,15.70
2022-12-03T03:21:14.881Z,18.50
2022-12-03T03:23:43.619Z,15.90
2022-12-03T03:26:14.430Z,18.60
2022-12-03T03:28:49.108Z,17.50
2022-12-03T03:31:23.507Z,17.10
2022-12-03T03:33:52.282Z,17.60
2022-12-03T03:36:21.205Z,17.80
2022-12-03T03:38:50.060Z,18.70
2022-12-03T03:41:21.032Z,15.60
2022-12-03T03:43:50.416Z,15.40
2022-12-03T03:46:20.763Z,15.60
2022-12-03T03:48:52.000Z,14.20
2022-12-03T03:51:21.917Z,18.40
2022-12-03T03:53:52.106Z,17.20
2022-12-03T03:56:22.781Z,17.80
2022-12-03T03:58:51.361Z,16.90
2022-12-03T04:01:20.183Z,16.80
2022-12-03T04:03:48.733Z,17.70
2022-12-03T04:06:17.380Z,18.60
2022-12-03T04:08:46.112Z,18.00
2022-12-03T04:11:33.625Z,20.60
2022-12-03T04:14:02.698Z,18.90
2022-12-03T04:16:31.581Z,17.50
2022-12-03T04:19:00.173Z,18.10
2022-12-03T04:21:47.121Z,17.90
2022-12-03T04:24:15.862Z,19.60
2022-12-03T04:27:03.696Z,16.10
2022-12-03T04:29:32.287Z,17.40
2022-12-03T04:32:19.805Z,18.90
2022-12-03T04:35:07.057Z,19.40
2022-12-03T04:37:35.439Z,18.40
2022-12-03T04:40:24.823Z,17.80
2022-12-03T04:42:54.001Z,17.80
2022-12-03T04:45:22.504Z,18.50
2022-12-03T04:47:51.064Z,15.90
2022-12-03T04:50:19.531Z,17.90
2022-12-03T04:52:48.303Z,18.50
2022-12-03T04:55:17.295Z,20.10
2022-12-03T04:57:45.980Z,22.60
2022-12-03T05:00:15.950Z,18.80
2022-12-03T05:02:44.680Z,17.00
2022-12-03T05:05:13.914Z,22.30
2022-12-03T05:07:43.013Z,19.10
2022-12-03T05:10:12.541Z,20.90
2022-12-03T05:12:41.181Z,17.20
2022-12-03T05:15:10.430Z,17.90
2022-12-03T05:17:39.048Z,18.40
2022-12-03T05:20:28.225Z,19.40
2022-12-03T05:22:57.107Z,18.50
2022-12-03T05:25:25.711Z,19.50
2022-12-03T05:27:54.272Z,19.10
2022-12-03T05:30:23.160Z,23.20
2022-12-03T05:32:51.948Z,18.60
2022-12-03T05:35:20.941Z,17.70
2022-12-03T05:37:49.415Z,16.50
2022-12-03T05:40:18.523Z,16.90
2022-12-03T05:43:01.367Z,19.20
2022-12-03T05:45:35.138Z,16.60
2022-12-03T05:48:06.601Z,16.10
2022-12-03T05:50:37.630Z,17.20
2022-12-03T05:53:18.205Z,17.70
2022-12-03T05:55:47.289Z,20.80
2022-12-03T05:58:16.078Z,16.90
2022-12-03T06:00:44.663Z,19.20
2022-12-03T06:03:13.470Z,17.50
2022-12-03T06:05:42.282Z,18.90
2022-12-03T06:08:11.053Z,19.30
2022-12-03T06:10:39.619Z,16.70
2022-12-03T06:13:08.294Z,19.70
2022-12-03T06:15:42.091Z,18.40
2022-12-03T06:18:12.665Z,16.30
2022-12-03T06:20:41.394Z,19.60
2022-12-03T06:23:10.030Z,20.00
2022-12-03T06:25:38.570Z,16.70
2022-12-03T06:28:07.702Z,15.10
2022-12-03T06:30:36.263Z,17.90
2022-12-03T06:33:04.909Z,21.00
2022-12-03T06:35:33.527Z,18.90
2022-12-03T06:38:02.210Z,15.70
2022-12-03T06:40:30.838Z,17.60
2022-12-03T06:42:59.481Z,18.10
2022-12-03T06:45:28.067Z,16.80
2022-12-03T06:47:56.679Z,16.80
2022-12-03T06:50:25.235Z,16.20
2022-12-03T06:52:53.815Z,17.40
2022-12-03T06:55:22.310Z,17.80
2022-12-03T06:57:51.129Z,20.70
2022-12-03T07:00:21.002Z,16.60
2022-12-03T07:05:18.200Z,16.00
2022-12-03T07:07:52.445Z,21.30
2022-12-03T07:10:21.990Z,18.70
2022-12-03T07:12:50.568Z,17.50
2022-12-03T07:15:19.256Z,19.90
2022-12-03T07:17:47.742Z,18.90
2022-12-03T07:20:17.151Z,17.30
2022-12-03T07:22:45.626Z,18.50
2022-12-03T07:25:19.518Z,17.00
2022-12-03T07:27:51.254Z,17.00
2022-12-03T07:30:20.220Z,18.40
2022-12-03T07:32:48.963Z,22.10
2022-12-03T07:35:17.659Z,17.40
2022-12-03T07:37:46.239Z,15.00
2022-12-03T07:40:14.750Z,16.70
2022-12-03T07:42:43.207Z,18.10
2022-12-03T07:45:12.189Z,15.40
2022-12-03T07:47:40.668Z,13.20
2022-12-03T07:50:10.069Z,17.70
2022-12-03T07:52:38.539Z,18.80
2022-12-03T07:55:07.801Z,16.70
2022-12-03T07:57:36.431Z,16.40
2022-12-03T08:00:07.889Z,16.30
2022-12-03T08:02:37.142Z,16.80
2022-12-03T08:05:06.836Z,16.20
2022-12-03T08:07:35.936Z,21.80
2022-12-03T08:10:07.602Z,17.90
2022-12-03T08:12:42.167Z,21.20
2022-12-03T08:15:21.607Z,17.40
2022-12-03T08:18:01.201Z,16.40
2022-12-03T08:20:40.233Z,15.20
2022-12-03T08:23:23.191Z,17.70
2022-12-03T08:25:53.622Z,16.40
2022-12-03T08:28:27.012Z,16.20
2022-12-03T08:31:12.786Z,16.70
2022-12-03T08:33:42.063Z,19.40
2022-12-03T08:36:34.233Z,16.40
2022-12-03T08:39:22.479Z,14.60
2022-12-03T08:42:27.145Z,16.00
2022-12-03T08:44:56.185Z,17.30
2022-12-03T08:47:25.718Z,17.10
2022-12-03T08:50:07.133Z,18.90
2022-12-03T08:52:35.606Z,17.00
2022-12-03T08:55:38.561Z,16.30
2022-12-03T08:58:31.133Z,12.50
2022-12-03T09:01:11.694Z,16.20
2022-12-03T09:03:52.812Z,17.70
2022-12-03T09:06:23.174Z,16.60
2022-12-03T09:08:51.637Z,15.70
2022-12-03T09:11:20.381Z,16.10
2022-12-03T09:13:49.571Z,16.80
2022-12-03T09:16:18.036Z,16.10
2022-12-03T09:18:46.543Z,16.80
2022-12-03T09:21:15.284Z,16.30
2022-12-03T09:23:43.868Z,18.00
2022-12-03T09:26:12.393Z,16.70
2022-12-03T09:28:40.842Z,17.50
2022-12-03T09:31:09.353Z,19.10
2022-12-03T09:33:37.929Z,16.00
2022-12-03T09:36:06.988Z,19.70
2022-12-03T09:38:35.650Z,18.30
2022-12-03T09:41:04.461Z,16.40
2022-12-03T09:44:02.796Z,15.90
2022-12-03T09:46:23.512Z,14.60
2022-12-03T09:48:52.481Z,20.40
2022-12-03T09:51:21.916Z,12.70
2022-12-03T09:53:50.730Z,16.70
2022-12-03T09:56:23.148Z,17.10
2022-12-03T09:58:51.694Z,15.70
2022-12-03T10:01:26.742Z,19.10
2022-12-03T10:03:58.802Z,14.20
2022-12-03T10:06:27.242Z,14.90
2022-12-03T10:08:56.229Z,15.90
2022-12-03T10:11:26.065Z,14.80
2022-12-03T10:13:56.810Z,16.10
2022-12-03T10:16:26.507Z,15.70
2022-12-03T10:18:59.564Z,13.80
2022-12-03T10:21:39.342Z,14.40
2022-12-03T10:26:47.444Z,16.80
2022-12-03T10:29:35.146Z,15.20
2022-12-03T10:32:08.271Z,16.80
2022-12-03T10:34:43.216Z,12.70
2022-12-03T10:37:22.244Z,13.70
2022-12-03T10:40:02.697Z,12.50
2022-12-03T10:42:37.257Z,12.40
2022-12-03T10:45:15.689Z,12.40
2022-12-03T10:48:05.749Z,14.40
2022-12-03T10:50:34.909Z,12.80
2022-12-03T10:53:04.893Z,14.60
2022-12-03T10:55:39.245Z,14.10
2022-12-03T10:58:17.781Z,13.10
2022-12-03T11:00:46.452Z,11.00
2022-12-03T11:03:21.225Z,11.10
2022-12-03T11:05:51.275Z,12.10
2022-12-03T11:08:24.048Z,13.10
2022-12-03T11:11:01.770Z,14.10
2022-12-03T11:13:45.783Z,13.80
2022-12-03T11:16:35.228Z,13.40
2022-12-03T11:19:04.282Z,14.20
2022-12-03T11:21:32.777Z,10.60
2022-12-03T11:24:01.210Z,11.40
2022-12-03T11:26:29.570Z,12.20
2022-12-03T11:28:59.598Z,13.40
2022-12-03T11:31:36.436Z,13.10
2022-12-03T11:34:19.963Z,13.40
2022-12-03T11:37:10.465Z,15.20
2022-12-03T11:39:51.304Z,14.50
2022-12-03T11:42:28.746Z,12.00
2022-12-03T11:45:06.416Z,13.00
2022-12-03T11:47:42.477Z,14.20
2022-12-03T11:50:53.673Z,16.20
2022-12-03T11:53:36.068Z,16.10
2022-12-03T11:56:09.287Z,14.20
2022-12-03T11:58:42.643Z,14.80
2022-12-03T12:01:12.713Z,14.30
2022-12-03T12:03:50.431Z,16.50
2022-12-03T12:06:21.650Z,15.30
2022-12-03T12:08:52.611Z,17.90
2022-12-03T12:11:28.264Z,15.60
2022-12-03T12:13:59.270Z,13.90
2022-12-03T12:16:50.994Z,16.70
2022-12-03T12:19:40.936Z,13.70
2022-12-03T12:22:32.667Z,13.40
2022-12-03T12:25:30.727Z,13.30
2022-12-03T12:27:59.133Z,17.00
2022-12-03T12:30:27.559Z,16.10
2022-12-03T12:33:08.102Z,17.70
2022-12-03T12:35:37.283Z,15.10
2022-12-03T12:38:11.680Z,13.70
2022-12-03T12:40:45.289Z,16.90
2022-12-03T12:43:24.971Z,15.70
2022-12-03T12:45:57.005Z,15.90
2022-12-03T12:48:34.282Z,15.80
2022-12-03T12:51:14.029Z,17.10
2022-12-03T12:53:43.211Z,18.60
2022-12-03T12:56:27.686Z,17.90
2022-12-03T12:59:03.678Z,15.30
2022-12-03T13:01:32.830Z,14.60
2022-12-03T13:04:02.502Z,16.40
2022-12-03T13:09:01.495Z,16.70
2022-12-03T13:11:41.609Z,18.50
2022-12-03T13:14:22.222Z,20.90
2022-12-03T13:16:53.316Z,14.00
2022-12-03T13:19:43.509Z,17.10
2022-12-03T13:22:22.049Z,12.30
2022-12-03T13:24:52.853Z,15.30
2022-12-03T13:27:30.285Z,16.40
2022-12-03T13:30:14.926Z,18.00
2022-12-03T13:32:43.830Z,16.10
2022-12-03T13:35:35.900Z,13.90
2022-12-03T13:38:15.828Z,17.80
2022-12-03T13:40:44.248Z,18.40
2022-12-03T13:43:17.042Z,17.20
2022-12-03T13:45:49.555Z,17.00
2022-12-03T13:48:29.621Z,14.90
2022-12-03T13:51:02.348Z,14.30
2022-12-03T13:53:38.581Z,15.40
2022-12-03T13:56:29.339Z,14.60
2022-12-03T13:59:00.658Z,14.50
2022-12-03T14:01:29.341Z,15.10
2022-12-03T14:03:58.369Z,17.10
2022-12-03T14:06:27.166Z,15.20
2022-12-03T14:08:55.583Z,16.50
2022-12-03T14:11:43.029Z,16.10
2022-12-03T14:14:11.631Z,18.80
2022-12-03T14:16:40.284Z,19.40
2022-12-03T14:19:08.991Z,24.90
2022-12-03T14:21:37.545Z,23.20
2022-12-03T14:24:06.668Z,19.00
2022-12-03T14:26:35.246Z,19.30
2022-12-03T14:29:08.591Z,20.10
2022-12-03T14:31:37.427Z,21.80
2022-12-03T14:34:05.953Z,20.10
2022-12-03T14:36:34.595Z,18.20
2022-12-03T14:39:03.313Z,21.60
2022-12-03T14:41:50.433Z,20.80
2022-12-03T14:44:22.154Z,21.60
2022-12-03T14:46:56.539Z,21.70
2022-12-03T14:49:25.783Z,22.10
2022-12-03T14:51:54.459Z,20.10
2022-12-03T14:54:23.348Z,18.20
2022-12-03T14:56:52.137Z,20.20
2022-12-03T14:59:25.865Z,20.30
2022-12-03T15:01:56.299Z,22.30
2022-12-03T15:04:24.893Z,19.50
2022-12-03T15:06:53.706Z,16.60
2022-12-03T15:09:22.341Z,17.90
2022-12-03T15:11:51.014Z,17.90
2022-12-03T15:14:19.621Z,18.80
2022-12-03T15:16:48.261Z,18.00
2022-12-03T15:19:17.203Z,22.30
2022-12-03T15:21:45.688Z,16.70
2022-12-03T15:24:14.336Z,17.90
2022-12-03T15:26:42.841Z,18.50
2022-12-03T15:29:11.554Z,16.70
2022-12-03T15:31:40.593Z,22.30
2022-12-03T15:34:09.290Z,17.80
2022-12-03T15:36:37.817Z,15.70
2022-12-03T15:39:06.444Z,16.90
2022-12-03T15:41:35.029Z,16.20
2022-12-03T15:44:03.614Z,17.00
2022-12-03T15:46:32.374Z,19.20
2022-12-03T15:49:00.939Z,20.50
2022-12-03T15:51:29.470Z,18.80
2022-12-03T15:53:58.250Z,22.30
2022-12-03T15:56:26.733Z,19.20
2022-12-03T15:58:55.236Z,19.40
2022-12-03T16:01:23.958Z,18.40
2022-12-03T16:03:52.584Z,21.40
2022-12-03T16:06:21.576Z,18.90
2022-12-03T16:08:50.159Z,18.90
2022-12-03T16:11:18.644Z,22.30
2022-12-03T16:13:47.326Z,24.70
2022-12-03T16:16:16.176Z,24.60
2022-12-03T16:18:44.793Z,23.20
2022-12-03T16:21:13.318Z,20.30
2022-12-03T16:23:41.978Z,21.20
2022-12-03T16:26:10.557Z,21.40
2022-12-03T16:28:39.251Z,21.10
2022-12-03T16:31:08.190Z,18.40
2022-12-03T16:33:36.815Z,18.80
2022-12-03T16:36:06.402Z,18.20
2022-12-03T16:38:35.125Z,20.70
2022-12-03T16:41:03.627Z,20.80
2022-12-03T16:43:35.789Z,19.30
2022-12-03T16:46:14.706Z,22.30
2022-12-03T16:48:43.932Z,24.20
2022-12-03T16:51:12.564Z,23.70
2022-12-03T16:53:41.249Z,22.20
2022-12-03T16:56:09.622Z,24.80
2022-12-03T16:58:38.184Z,19.90
2022-12-03T17:01:07.387Z,22.40
2022-12-03T17:03:36.335Z,22.80
2022-12-03T17:06:05.494Z,25.10
2022-12-03T17:08:34.084Z,22.70
2022-12-03T17:13:33.633Z,26.40
2022-12-03T17:16:02.938Z,25.70
2022-12-03T17:18:31.481Z,22.10
2022-12-03T17:21:00.080Z,26.40
2022-12-03T17:23:29.157Z,26.50
2022-12-03T17:25:57.725Z,26.00
2022-12-03T17:28:26.232Z,26.50
2022-12-03T17:30:55.041Z,21.60
2022-12-03T17:33:23.628Z,26.80
2022-12-03T17:35:52.281Z,23.60
2022-12-03T17:38:20.863Z,20.40
2022-12-03T17:40:49.360Z,24.10
2022-12-03T17:43:17.926Z,23.00
2022-12-03T17:45:46.613Z,22.40
2022-12-03T17:48:15.648Z,23.30
2022-12-03T17:50:44.287Z,25.50
2022-12-03T17:53:12.747Z,23.40
2022-12-03T17:55:44.946Z,26.50
2022-12-03T17:58:14.034Z,25.80
2022-12-03T18:00:42.822Z,25.00
2022-12-03T18:03:11.634Z,26.60
2022-12-03T18:05:40.437Z,28.30
2022-12-03T18:08:09.269Z,25.30
2022-12-03T18:10:38.177Z,25.80
2022-12-03T18:13:06.860Z,25.50
2022-12-03T18:15:35.652Z,26.90
2022-12-03T18:18:04.746Z,26.60
2022-12-03T18:20:33.670Z,24.20
2022-12-03T18:23:02.732Z,25.40
2022-12-03T18:25:31.466Z,24.10
2022-12-03T18:28:00.307Z,23.70
2022-12-03T18:30:28.863Z,24.10
2022-12-03T18:32:57.472Z,24.70
2022-12-03T18:35:26.380Z,28.70
2022-12-03T18:37:54.977Z,29.80
2022-12-03T18:40:26.412Z,25.90
2022-12-03T18:42:56.496Z,25.80
2022-12-03T18:45:25.061Z,23.30
2022-12-03T18:47:53.562Z,27.70
2022-12-03T18:50:22.009Z,23.70
2022-12-03T18:52:50.463Z,23.70
2022-12-03T18:55:19.913Z,23.10
2022-12-03T18:57:48.524Z,25.80
2022-12-03T19:00:17.444Z,24.00
2022-12-03T19:05:35.948Z,22.90
2022-12-03T19:08:14.149Z,26.70
2022-12-03T19:10:43.675Z,23.10
2022-12-03T19:13:12.416Z,21.90
2022-12-03T19:15:41.480Z,22.80
2022-12-03T19:18:10.063Z,24.20
2022-12-03T19:20:41.505Z,21.80
2022-12-03T19:23:10.638Z,21.30
2022-12-03T19:25:39.202Z,21.30
2022-12-03T19:28:08.029Z,26.30
2022-12-03T19:30:36.869Z,21.40
2022-12-03T19:33:05.551Z,22.80
2022-12-03T19:35:40.032Z,21.90
2022-12-03T19:38:08.594Z,22.50
2022-12-03T19:40:37.035Z,23.00
2022-12-03T19:43:05.506Z,21.10
2022-12-03T19:45:37.149Z,21.40
2022-12-03T19:48:06.140Z,20.70
2022-12-03T19:50:34.660Z,19.30
2022-12-03T19:53:03.368Z,16.70
2022-12-03T19:55:35.786Z,19.60
2022-12-03T19:58:04.226Z,16.60
2022-12-03T20:00:34.951Z,16.90
2022-12-03T20:03:04.048Z,14.40
2022-12-03T20:05:38.851Z,16.80
2022-12-03T20:08:08.815Z,14.40
2022-12-03T20:10:37.577Z,15.90
2022-12-03T20:13:06.229Z,13.20
2022-12-03T20:15:37.471Z,14.70
2022-12-03T20:18:05.993Z,15.20
2022-12-03T20:20:34.462Z,13.80
2022-12-03T20:23:03.122Z,12.50
2022-12-03T20:25:31.806Z,13.10
2022-12-03T20:28:00.408Z,14.10
2022-12-03T20:30:29.085Z,13.20
2022-12-03T20:32:57.762Z,11.70
2022-12-03T20:35:26.243Z,10.90
2022-12-03T20:37:54.894Z,13.10
2022-12-03T20:40:23.463Z,12.50
2022-12-03T20:42:52.203Z,12.80
2022-12-03T20:45:20.738Z,12.10
2022-12-03T20:47:49.260Z,12.10
2022-12-03T20:50:17.945Z,13.00
2022-12-03T20:53:03.629Z,11.20
2022-12-03T20:55:35.388Z,13.30
2022-12-03T20:58:04.113Z,11.20
2022-12-03T21:00:32.637Z,12.10
2022-12-03T21:03:01.111Z,13.90
2022-12-03T21:05:29.720Z,13.10
2022-12-03T21:07:58.525Z,13.70
2022-12-03T21:10:36.206Z,14.00
2022-12-03T21:13:04.787Z,12.20
2022-12-03T21:15:33.473Z,11.60
2022-12-03T21:18:01.996Z,13.50
2022-12-03T21:20:30.773Z,11.90
2022-12-03T21:22:59.170Z,12.30
2022-12-03T21:25:27.703Z,11.10
2022-12-03T21:27:56.185Z,10.30
2022-12-03T21:30:24.833Z,13.10
2022-12-03T21:32:53.656Z,11.30
2022-12-03T21:35:22.548Z,11.80
2022-12-03T21:37:52.010Z,13.00
2022-12-03T21:40:20.737Z,13.50
2022-12-03T21:42:49.422Z,14.10
2022-12-03T21:45:18.080Z,16.20
2022-12-03T21:47:48.672Z,13.10
2022-12-03T21:50:17.451Z,12.50
2022-12-03T21:52:46.212Z,12.30
2022-12-03T21:55:15.000Z,13.90
2022-12-03T21:57:43.686Z,12.10
2022-12-03T22:00:13.506Z,12.90
2022-12-03T22:05:12.434Z,14.60
2022-12-03T22:07:41.360Z,13.50
2022-12-03T22:10:11.953Z,15.20
2022-12-03T22:12:42.310Z,14.50
2022-12-03T22:15:16.726Z,16.10
2022-12-03T22:17:48.257Z,13.50
2022-12-03T22:20:17.287Z,13.30
2022-12-03T22:22:45.777Z,15.40
2022-12-03T22:25:14.388Z,15.80
2022-12-03T22:27:42.909Z,14.60
2022-12-03T22:30:12.004Z,15.20
2022-12-03T22:32:40.453Z,13.70
2022-12-03T22:35:09.586Z,16.80
2022-12-03T22:37:38.081Z,19.40
2022-12-03T22:40:07.379Z,15.40
2022-12-03T22:42:36.101Z,16.80
2022-12-03T22:45:05.538Z,14.40
2022-12-03T22:47:34.190Z,18.70
2022-12-03T22:50:02.982Z,15.90
2022-12-03T22:52:31.785Z,16.10
2022-12-03T22:55:00.207Z,16.40
2022-12-03T22:57:28.829Z,16.40
2022-12-03T22:59:57.668Z,17.20
2022-12-03T23:02:26.344Z,16.90
2022-12-03T23:04:56.220Z,18.30
2022-12-03T23:07:24.800Z,15.70
2022-12-03T23:09:53.703Z,18.30
2022-12-03T23:12:22.829Z,18.70
2022-12-03T23:14:55.475Z,17.90
2022-12-03T23:17:23.933Z,16.40
2022-12-03T23:19:52.698Z,14.90
2022-12-03T23:22:21.623Z,16.60
2022-12-03T23:24:50.250Z,18.10
2022-12-03T23:27:18.898Z,15.40
2022-12-03T23:29:47.410Z,19.00
2022-12-03T23:32:16.149Z,18.30
2022-12-03T23:34:44.678Z,14.30
2022-12-03T23:37:13.227Z,16.80
2022-12-03T23:39:42.045Z,18.10
2022-12-03T23:42:10.628Z,18.50
2022-12-03T23:44:39.387Z,18.10
2022-12-03T23:47:08.024Z,15.80
2022-12-03T23:49:36.857Z,18.90
2022-12-03T23:52:06.056Z,16.40
2022-12-03T23:54:34.639Z,18.80
2022-12-03T23:57:04.224Z,16.60
2022-12-03T23:59:32.692Z,19.00
